createdAt,value
2022-11-16T00:02:16.112Z,55.80
2022-11-16T00:05:18.805Z,50.70
2022-11-16T00:08:20.509Z,54.80
2022-11-16T00:11:22.229Z,53.30
2022-11-16T00:14:26.715Z,57.20
2022-11-16T00:17:28.415Z,54.90
2022-11-16T00:20:30.137Z,57.90
2022-11-16T00:23:34.505Z,56.70
2022-11-16T00:26:36.189Z,61.70
2022-11-16T00:29:37.987Z,60.10
2022-11-16T00:32:39.681Z,55.00
2022-11-16T00:35:41.700Z,60.70
2022-11-16T00:38:43.453Z,69.00
2022-11-16T00:41:48.337Z,67.00
2022-11-16T00:44:50.128Z,68.90
2022-11-16T00:47:55.277Z,67.40
2022-11-16T00:51:00.941Z,63.40
2022-11-16T00:54:04.463Z,65.10
2022-11-16T00:57:08.065Z,67.80
2022-11-16T01:00:11.112Z,65.70
2022-11-16T01:03:12.989Z,68.30
2022-11-16T01:06:16.563Z,68.10
2022-11-16T01:09:18.265Z,66.70
2022-11-16T01:12:22.477Z,66.40
2022-11-16T01:15:26.342Z,61.30
2022-11-16T01:18:27.994Z,63.20
2022-11-16T01:21:29.883Z,64.70
2022-11-16T01:24:31.867Z,62.80
2022-11-16T01:27:33.760Z,61.90
2022-11-16T01:30:37.313Z,59.20
2022-11-16T01:33:42.610Z,59.70
2022-11-16T01:36:52.201Z,61.60
2022-11-16T01:39:54.199Z,57.70
2022-11-16T01:42:56.510Z,58.90
2022-11-16T01:45:58.347Z,62.90
2022-11-16T01:49:10.055Z,57.60
2022-11-16T01:52:16.657Z,54.30
2022-11-16T01:55:18.565Z,55.90
2022-11-16T01:58:35.475Z,57.40
2022-11-16T02:01:49.336Z,55.30
2022-11-16T02:04:54.375Z,57.60
2022-11-16T02:08:44.381Z,55.20
2022-11-16T02:15:55.707Z,54.60
2022-11-16T02:19:30.350Z,58.20
2022-11-16T02:23:16.639Z,53.80
2022-11-16T02:26:55.664Z,54.40
2022-11-16T02:30:00.553Z,56.10
2022-11-16T02:33:11.617Z,58.20
2022-11-16T02:36:20.087Z,57.70
2022-11-16T02:39:26.616Z,55.40
2022-11-16T02:42:34.654Z,55.80
2022-11-16T02:45:42.210Z,58.40
2022-11-16T02:48:49.772Z,56.30
2022-11-16T02:51:52.837Z,54.10
2022-11-16T02:54:55.240Z,56.20
2022-11-16T02:58:01.323Z,56.20
2022-11-16T03:01:12.465Z,58.30
2022-11-16T03:04:23.642Z,52.50
2022-11-16T03:07:30.230Z,52.40
2022-11-16T03:10:54.766Z,51.30
2022-11-16T03:14:01.913Z,50.10
2022-11-16T03:17:07.493Z,54.60
2022-11-16T03:20:14.752Z,48.50
2022-11-16T03:23:17.796Z,51.50
2022-11-16T03:26:24.541Z,51.70
2022-11-16T03:29:36.050Z,53.90
2022-11-16T03:33:00.117Z,55.40
2022-11-16T03:36:31.512Z,54.20
2022-11-16T03:39:37.215Z,50.90
2022-11-16T03:42:41.143Z,54.10
2022-11-16T03:45:45.042Z,49.50
2022-11-16T03:48:46.932Z,56.00
2022-11-16T03:51:56.861Z,54.60
2022-11-16T03:54:58.618Z,57.50
2022-11-16T03:58:00.593Z,52.40
2022-11-16T04:01:02.956Z,55.20
2022-11-16T04:04:05.390Z,58.60
2022-11-16T04:07:26.926Z,55.30
2022-11-16T04:10:47.329Z,55.10
2022-11-16T04:14:09.480Z,53.00
2022-11-16T04:17:34.359Z,53.20
2022-11-16T04:20:54.762Z,56.10
2022-11-16T04:24:11.670Z,56.40
2022-11-16T04:27:34.035Z,59.20
2022-11-16T04:30:54.856Z,57.90
2022-11-16T04:34:15.295Z,53.20
2022-11-16T04:37:39.356Z,54.30
2022-11-16T04:40:41.093Z,52.80
2022-11-16T04:43:44.354Z,57.40
2022-11-16T04:47:05.056Z,57.50
2022-11-16T04:50:07.811Z,56.70
2022-11-16T04:53:11.033Z,58.00
2022-11-16T04:56:19.213Z,53.40
2022-11-16T04:59:21.919Z,51.10
2022-11-16T05:02:23.639Z,49.00
2022-11-16T05:05:28.476Z,51.80
2022-11-16T05:11:32.854Z,48.70
2022-11-16T05:14:34.606Z,51.50
2022-11-16T05:17:36.447Z,52.50
2022-11-16T05:21:01.349Z,51.80
2022-11-16T05:24:24.532Z,50.60
2022-11-16T05:27:28.365Z,51.80
2022-11-16T05:30:30.459Z,52.00
2022-11-16T05:33:33.102Z,53.80
2022-11-16T05:36:35.181Z,50.80
2022-11-16T05:39:37.332Z,53.20
2022-11-16T05:42:39.096Z,51.70
2022-11-16T05:45:42.249Z,50.50
2022-11-16T05:48:43.840Z,49.10
2022-11-16T05:51:46.556Z,53.60
2022-11-16T05:54:49.293Z,55.10
2022-11-16T05:57:51.317Z,57.60
2022-11-16T06:00:53.082Z,56.60
2022-11-16T06:03:54.885Z,45.30
2022-11-16T06:06:56.848Z,57.80
2022-11-16T06:10:02.990Z,61.00
2022-11-16T06:13:05.840Z,73.80
2022-11-16T06:16:08.107Z,80.00
2022-11-16T06:22:11.833Z,74.70
2022-11-16T06:25:13.582Z,80.60
2022-11-16T06:28:17.656Z,84.40
2022-11-16T06:31:19.464Z,83.90
2022-11-16T06:34:21.171Z,84.50
2022-11-16T06:37:23.145Z,83.80
2022-11-16T06:40:25.115Z,80.50
2022-11-16T06:43:27.040Z,79.20
2022-11-16T06:49:32.073Z,95.50
2022-11-16T06:52:35.550Z,95.90
2022-11-16T06:55:37.715Z,94.70
2022-11-16T06:58:41.677Z,102.60
2022-11-16T07:01:44.870Z,98.40
2022-11-16T07:04:48.089Z,106.70
2022-11-16T07:11:04.263Z,97.60
2022-11-16T07:14:06.416Z,94.60
2022-11-16T07:17:09.822Z,94.70
2022-11-16T07:20:11.779Z,102.30
2022-11-16T07:23:14.412Z,104.20
2022-11-16T07:26:19.262Z,105.60
2022-11-16T07:29:29.186Z,98.10
2022-11-16T07:32:59.941Z,97.40
2022-11-16T07:36:21.640Z,98.00
2022-11-16T07:39:23.257Z,90.30
2022-11-16T07:42:24.902Z,87.60
2022-11-16T07:45:35.955Z,85.70
2022-11-16T07:48:42.620Z,89.40
2022-11-16T07:51:53.462Z,93.10
2022-11-16T07:55:07.526Z,91.50
2022-11-16T07:58:10.046Z,94.90
2022-11-16T08:01:15.311Z,98.20
2022-11-16T08:04:17.762Z,95.30
2022-11-16T08:07:19.918Z,99.90
2022-11-16T08:10:26.510Z,94.00
2022-11-16T08:13:31.462Z,98.10
2022-11-16T08:16:33.440Z,102.20
2022-11-16T08:19:41.958Z,100.60
2022-11-16T08:25:46.507Z,98.20
2022-11-16T08:28:53.103Z,101.10
2022-11-16T08:31:58.365Z,101.10
2022-11-16T08:38:02.631Z,90.20
2022-11-16T08:41:04.794Z,93.60
2022-11-16T08:44:07.264Z,84.60
2022-11-16T08:47:10.777Z,90.20
2022-11-16T08:50:20.075Z,84.90
2022-11-16T08:53:21.744Z,87.70
2022-11-16T08:56:26.492Z,90.40
2022-11-16T08:59:29.057Z,87.20
2022-11-16T09:02:38.311Z,85.30
2022-11-16T09:05:41.921Z,84.60
2022-11-16T09:08:45.474Z,82.40
2022-11-16T09:11:47.263Z,87.30
2022-11-16T09:14:48.989Z,74.60
2022-11-16T09:17:54.206Z,73.50
2022-11-16T09:20:56.621Z,67.00
2022-11-16T09:23:58.553Z,65.00
2022-11-16T09:27:00.870Z,60.00
2022-11-16T09:33:05.256Z,48.90
2022-11-16T09:36:08.770Z,50.00
2022-11-16T09:39:30.039Z,45.70
2022-11-16T09:45:54.513Z,44.30
2022-11-16T09:48:58.915Z,48.60
2022-11-16T09:52:04.130Z,47.20
2022-11-16T09:55:23.473Z,43.00
2022-11-16T09:58:35.226Z,42.20
2022-11-16T10:01:52.070Z,48.60
2022-11-16T10:05:20.986Z,46.30
2022-11-16T10:08:35.639Z,48.60
2022-11-16T10:11:43.946Z,44.80
2022-11-16T10:15:22.931Z,55.70
2022-11-16T10:18:49.251Z,46.60
2022-11-16T10:22:06.007Z,46.70
2022-11-16T10:25:29.109Z,36.60
2022-11-16T10:28:57.503Z,39.10
2022-11-16T10:32:14.709Z,35.80
2022-11-16T10:35:23.631Z,34.10
2022-11-16T10:38:30.427Z,31.40
2022-11-16T10:41:38.665Z,29.90
2022-11-16T10:44:48.621Z,26.70
2022-11-16T10:48:02.665Z,25.50
2022-11-16T10:51:07.005Z,27.50
2022-11-16T10:54:16.797Z,28.40
2022-11-16T10:57:18.984Z,29.70
2022-11-16T11:03:36.218Z,20.40
2022-11-16T11:09:43.088Z,13.50
2022-11-16T11:13:05.854Z,15.80
2022-11-16T11:16:17.671Z,17.70
2022-11-16T11:19:29.026Z,14.40
2022-11-16T11:22:42.042Z,13.30
2022-11-16T11:25:55.507Z,12.90
2022-11-16T11:29:00.783Z,12.40
2022-11-16T11:32:07.294Z,13.00
2022-11-16T11:35:26.386Z,14.90
2022-11-16T11:38:28.671Z,17.80
2022-11-16T11:41:36.689Z,22.50
2022-11-16T11:44:49.878Z,20.70
2022-11-16T11:47:58.424Z,12.00
2022-11-16T11:51:11.502Z,13.90
2022-11-16T11:54:22.380Z,18.60
2022-11-16T11:57:25.142Z,16.20
2022-11-16T12:00:27.092Z,15.50
2022-11-16T12:03:43.839Z,16.40
2022-11-16T12:06:56.633Z,20.00
2022-11-16T12:10:16.241Z,23.10
2022-11-16T12:13:42.533Z,21.60
2022-11-16T12:16:57.240Z,20.70
2022-11-16T12:20:07.880Z,23.80
2022-11-16T12:23:24.653Z,26.60
2022-11-16T12:26:34.175Z,25.10
2022-11-16T12:30:07.343Z,18.80
2022-11-16T12:33:22.818Z,18.10
2022-11-16T12:36:39.529Z,13.30
2022-11-16T12:39:52.497Z,10.20
2022-11-16T12:43:20.308Z,8.50
2022-11-16T12:46:34.467Z,7.90
2022-11-16T12:49:48.144Z,7.10
2022-11-16T12:53:24.067Z,6.90
2022-11-16T12:56:48.683Z,5.60
2022-11-16T13:00:11.217Z,6.00
2022-11-16T13:03:19.974Z,5.30
2022-11-16T13:06:30.012Z,5.40
2022-11-16T13:09:37.046Z,4.30
2022-11-16T13:12:39.441Z,3.80
2022-11-16T13:15:42.689Z,4.30
2022-11-16T13:18:44.584Z,4.70
2022-11-16T13:22:13.215Z,4.70
2022-11-16T13:25:35.829Z,5.20
2022-11-16T13:31:50.096Z,6.50
2022-11-16T13:34:52.607Z,10.60
2022-11-16T13:37:55.827Z,21.80
2022-11-16T13:41:27.320Z,16.10
2022-11-16T13:44:29.503Z,9.40
2022-11-16T13:47:31.316Z,9.80
2022-11-16T13:50:37.943Z,11.80
2022-11-16T13:54:43.049Z,9.60
2022-11-16T13:57:35.109Z,4.70
2022-11-16T14:00:39.938Z,6.80
2022-11-16T14:03:44.409Z,7.00
2022-11-16T14:06:46.207Z,7.40
2022-11-16T14:09:49.345Z,7.40
2022-11-16T14:12:53.791Z,11.40
2022-11-16T14:16:14.275Z,7.30
2022-11-16T14:19:40.750Z,8.20
2022-11-16T14:23:15.539Z,6.90
2022-11-16T14:26:44.735Z,5.80
2022-11-16T14:29:55.651Z,7.30
2022-11-16T14:32:58.052Z,7.50
2022-11-16T14:36:03.867Z,7.40
2022-11-16T14:39:27.493Z,8.70
2022-11-16T14:42:48.123Z,7.60
2022-11-16T14:45:59.901Z,8.10
2022-11-16T14:49:03.311Z,6.10
2022-11-16T14:52:07.647Z,6.90
2022-11-16T14:55:17.621Z,5.50
2022-11-16T14:58:21.590Z,5.10
2022-11-16T15:01:27.172Z,6.20
2022-11-16T15:04:29.725Z,5.30
2022-11-16T15:07:32.063Z,5.00
2022-11-16T15:13:35.894Z,5.10
2022-11-16T15:16:49.464Z,5.30
2022-11-16T15:19:54.595Z,3.70
2022-11-16T15:22:59.642Z,4.20
2022-11-16T15:26:03.004Z,5.00
2022-11-16T15:29:04.996Z,4.10
2022-11-16T15:32:16.259Z,4.70
2022-11-16T15:35:28.856Z,5.50
2022-11-16T15:38:32.472Z,5.30
2022-11-16T15:41:38.891Z,6.30
2022-11-16T15:44:42.799Z,7.10
2022-11-16T15:47:46.517Z,6.10
2022-11-16T15:51:05.067Z,4.50
2022-11-16T15:54:54.647Z,6.30
2022-11-16T15:58:17.617Z,6.70
2022-11-16T16:01:20.352Z,6.30
2022-11-16T16:04:24.014Z,9.50
2022-11-16T16:07:37.270Z,7.10
2022-11-16T16:10:39.146Z,7.10
2022-11-16T16:13:43.596Z,5.80
2022-11-16T16:16:58.560Z,6.60
2022-11-16T16:20:03.183Z,7.80
2022-11-16T16:23:15.179Z,8.60
2022-11-16T16:26:17.989Z,8.80
2022-11-16T16:29:19.700Z,8.40
2022-11-16T16:32:24.208Z,9.00
2022-11-16T16:35:26.527Z,8.30
2022-11-16T16:41:30.021Z,7.70
2022-11-16T16:44:31.981Z,7.60
2022-11-16T16:47:33.641Z,7.90
2022-11-16T16:50:35.854Z,5.90
2022-11-16T16:53:37.593Z,6.70
2022-11-16T16:56:39.651Z,5.90
2022-11-16T16:59:45.277Z,5.40
2022-11-16T17:02:47.547Z,5.40
2022-11-16T17:05:52.824Z,5.30
2022-11-16T17:08:55.100Z,5.50
2022-11-16T17:15:04.032Z,4.00
2022-11-16T17:18:06.262Z,3.80
2022-11-16T17:24:11.133Z,4.80
2022-11-16T17:27:12.963Z,4.30
2022-11-16T17:30:15.196Z,6.00
2022-11-16T17:33:16.939Z,6.00
2022-11-16T17:36:19.411Z,5.40
2022-11-16T17:39:24.602Z,4.80
2022-11-16T17:42:26.312Z,5.30
2022-11-16T17:45:28.142Z,6.50
2022-11-16T17:48:30.278Z,5.50
2022-11-16T17:51:32.206Z,5.60
2022-11-16T17:54:34.575Z,6.40
2022-11-16T17:57:36.793Z,4.40
2022-11-16T18:03:40.932Z,4.60
2022-11-16T18:09:44.441Z,5.20
2022-11-16T18:12:46.181Z,4.40
2022-11-16T18:15:47.916Z,4.20
2022-11-16T18:18:56.595Z,5.10
2022-11-16T18:21:58.642Z,3.90
2022-11-16T18:25:00.527Z,5.10
2022-11-16T18:28:02.576Z,3.40
2022-11-16T18:31:14.762Z,3.00
2022-11-16T18:37:19.067Z,2.50
2022-11-16T18:40:21.204Z,2.30
2022-11-16T18:46:30.804Z,2.00
2022-11-16T18:49:32.661Z,3.00
2022-11-16T18:52:34.490Z,2.10
2022-11-16T18:55:36.167Z,2.60
2022-11-16T18:58:53.950Z,3.80
2022-11-16T19:01:55.860Z,3.20
2022-11-16T19:04:57.725Z,3.00
2022-11-16T19:08:00.273Z,4.00
2022-11-16T19:11:10.949Z,2.40
2022-11-16T19:14:12.876Z,3.70
2022-11-16T19:17:15.675Z,5.30
2022-11-16T19:20:17.872Z,3.10
2022-11-16T19:23:19.591Z,2.80
2022-11-16T19:26:24.099Z,2.30
2022-11-16T19:29:25.999Z,4.40
2022-11-16T19:32:27.995Z,4.60
2022-11-16T19:35:29.980Z,6.00
2022-11-16T19:38:31.841Z,2.40
2022-11-16T19:41:34.015Z,3.30
2022-11-16T19:47:39.026Z,3.30
2022-11-16T19:50:41.847Z,2.40
2022-11-16T19:53:45.019Z,3.00
2022-11-16T19:56:50.577Z,3.10
2022-11-16T19:59:55.862Z,1.90
2022-11-16T20:02:57.772Z,4.40
2022-11-16T20:06:14.663Z,3.70
2022-11-16T20:09:17.067Z,6.30
2022-11-16T20:15:22.922Z,3.90
2022-11-16T20:18:24.731Z,5.50
2022-11-16T20:21:34.667Z,4.10
2022-11-16T20:24:36.577Z,4.70
2022-11-16T20:27:38.864Z,5.10
2022-11-16T20:30:48.722Z,4.60
2022-11-16T20:33:54.241Z,4.10
2022-11-16T20:36:56.135Z,4.10
2022-11-16T20:39:57.950Z,5.70
2022-11-16T20:43:00.854Z,3.50
2022-11-16T20:46:02.786Z,4.40
2022-11-16T20:49:04.657Z,3.40
2022-11-16T20:52:06.569Z,3.20
2022-11-16T20:55:08.990Z,4.20
2022-11-16T21:01:17.807Z,3.60
2022-11-16T21:04:20.034Z,4.50
2022-11-16T21:07:23.559Z,4.60
2022-11-16T21:10:25.747Z,4.90
2022-11-16T21:13:46.139Z,5.00
2022-11-16T21:16:48.101Z,4.40
2022-11-16T21:20:20.079Z,4.60
2022-11-16T21:23:12.835Z,5.60
2022-11-16T21:26:15.109Z,4.10
2022-11-16T21:29:16.731Z,7.20
2022-11-16T21:32:18.408Z,5.10
2022-11-16T21:35:20.342Z,5.00
2022-11-16T21:38:24.667Z,4.20
2022-11-16T21:41:26.810Z,3.40
2022-11-16T21:44:41.082Z,4.20
2022-11-16T21:47:42.671Z,4.10
2022-11-16T21:50:44.310Z,5.70
2022-11-16T21:53:46.138Z,4.60
2022-11-16T21:56:47.776Z,3.70
2022-11-16T21:59:49.413Z,5.20
2022-11-16T22:02:51.118Z,4.90
2022-11-16T22:06:12.215Z,3.60
2022-11-16T22:09:13.812Z,3.70
2022-11-16T22:12:15.459Z,5.30
2022-11-16T22:15:17.398Z,5.40
2022-11-16T22:18:18.993Z,4.70
2022-11-16T22:21:20.629Z,3.70
2022-11-16T22:24:22.266Z,3.80
2022-11-16T22:27:24.157Z,4.00
2022-11-16T22:30:25.787Z,3.30
2022-11-16T22:33:29.208Z,4.60
2022-11-16T22:36:30.858Z,4.40
2022-11-16T22:39:32.592Z,5.60
2022-11-16T22:42:34.240Z,3.70
2022-11-16T22:45:35.885Z,3.70
2022-11-16T22:48:39.014Z,5.00
2022-11-16T22:51:40.666Z,4.20
2022-11-16T22:54:42.375Z,5.30
2022-11-16T22:57:43.976Z,4.20
2022-11-16T23:00:45.554Z,5.10
2022-11-16T23:03:47.576Z,4.60
2022-11-16T23:06:49.479Z,4.80
2022-11-16T23:09:51.205Z,7.00
2022-11-16T23:13:11.299Z,6.70
2022-11-16T23:16:12.895Z,4.20
2022-11-16T23:19:52.542Z,5.30
2022-11-16T23:23:12.742Z,5.00
2022-11-16T23:26:40.855Z,5.60
2022-11-16T23:29:42.931Z,5.80
2022-11-16T23:32:44.666Z,5.30
2022-11-16T23:35:46.305Z,5.10
2022-11-16T23:38:48.086Z,4.80
2022-11-16T23:42:08.590Z,5.50
2022-11-16T23:45:10.267Z,5.50
2022-11-16T23:48:15.788Z,4.70
2022-11-16T23:51:18.173Z,4.90
2022-11-16T23:54:19.829Z,5.10
2022-11-16T23:57:21.398Z,4.40
